Terminal Aerodrome Forecast
Issued by NWS Tulsa, OK

Home | Current Version | Previous Version | Text Only | Print | Product List | Glossary On
Versions: 1 2 3 4 5 6 7 8 9 10 11 12 13 14 15 16 17 18 19 20 21 22 23 24 25 26 27 28 29 30 31 32 33 34 35 36
000
FTUS44 KTSA 241720
TAFTUL
TAF
KTUL 241720Z 2418/2518 04005KT P6SM OVC015
     FM242100 36005KT P6SM BKN035
     FM250300 VRB03KT P6SM SCT025 BKN250
      TEMPO 2509/2513 4SM BR OVC025
     FM251500 35009KT P6SM SCT250=

USA.gov is the U.S. government's official web portal to all federal, state and local government web resources and services.